Time;durP1;ratioP1;P1;durP2;ratioP2;P2;SDS_P1;SDS_P2;PMS_P1;PMS_P2;Temp;Humidity;BMP_temperature;BMP_pressure;BME280_temperature;BME280_humidity;BME280_pressure;Samples;Min_cycle;Max_cycle;Signal;HPM_P1;HPM_P2
2021/08/16 00:02:22;;;;;;;0.35;0.35;;;19.60;99.90;;;;;;4429483;32;20140;-66
2021/08/16 00:04:47;;;;;;;2.20;0.37;;;19.60;99.90;;;;;;4430069;32;20074;-66
2021/08/16 00:07:13;;;;;;;0.30;0.30;;;19.50;99.90;;;;;;4430608;32;20451;-66
2021/08/16 00:09:38;;;;;;;0.65;0.40;;;19.50;99.90;;;;;;4429834;32;20074;-66
2021/08/16 00:12:04;;;;;;;0.30;0.30;;;19.40;99.90;;;;;;4428930;32;20077;-67
2021/08/16 00:14:30;;;;;;;0.40;0.40;;;19.50;99.90;;;;;;4430908;32;20128;-66
2021/08/16 00:16:56;;;;;;;0.35;0.35;;;19.60;99.90;;;;;;4429744;32;20081;-66
2021/08/16 00:19:22;;;;;;;0.40;0.40;;;19.70;99.90;;;;;;4429155;32;20073;-67
2021/08/16 00:21:47;;;;;;;0.40;0.40;;;19.70;99.90;;;;;;4429392;32;20082;-67
2021/08/16 00:24:13;;;;;;;0.30;0.30;;;19.50;99.90;;;;;;4429337;32;20085;-67
2021/08/16 00:26:38;;;;;;;0.30;0.30;;;19.60;99.90;;;;;;4429302;32;20069;-67
2021/08/16 00:29:04;;;;;;;1.45;0.45;;;19.70;99.90;;;;;;4429597;32;20077;-66
2021/08/16 00:31:29;;;;;;;0.30;0.30;;;19.60;99.90;;;;;;4429972;32;20112;-66
2021/08/16 00:33:56;;;;;;;0.30;0.30;;;19.50;99.90;;;;;;4432852;32;20068;-66
2021/08/16 00:36:22;;;;;;;1.10;0.73;;;19.40;99.90;;;;;;4444375;32;20119;-67
2021/08/16 00:38:48;;;;;;;0.40;0.40;;;19.50;99.90;;;;;;4444512;32;20124;-66
2021/08/16 00:41:15;;;;;;;2.15;1.05;;;19.40;99.90;;;;;;4445680;32;20442;-67
2021/08/16 00:43:41;;;;;;;0.40;0.40;;;19.40;99.90;;;;;;4446072;32;20127;-67
2021/08/16 00:46:06;;;;;;;1.02;0.90;;;19.30;99.90;;;;;;4443057;32;20453;-66
2021/08/16 00:48:32;;;;;;;0.28;0.28;;;19.20;99.90;;;;;;4429267;32;20502;-67
2021/08/16 00:50:58;;;;;;;0.37;0.37;;;19.10;99.90;;;;;;4429119;32;20455;-67
2021/08/16 00:53:24;;;;;;;0.80;0.80;;;19.00;99.90;;;;;;4429370;32;20169;-67
2021/08/16 00:55:50;;;;;;;0.35;0.35;;;19.00;99.90;;;;;;4428917;32;20439;-67
2021/08/16 00:58:17;;;;;;;0.52;0.50;;;18.90;99.90;;;;;;4430355;32;20509;-67
2021/08/16 01:00:43;;;;;;;0.52;0.52;;;18.80;99.90;;;;;;4428705;32;20066;-67
2021/08/16 01:03:08;;;;;;;0.60;0.60;;;18.70;99.90;;;;;;4429087;32;20116;-67
2021/08/16 01:05:34;;;;;;;0.95;0.52;;;18.70;99.90;;;;;;4430139;32;20076;-67
2021/08/16 01:07:59;;;;;;;0.82;0.52;;;18.60;99.90;;;;;;4430236;32;20541;-67
2021/08/16 01:10:30;;;;;;;0.30;0.30;;;18.60;99.90;;;;;;4432318;32;20077;-67
2021/08/16 01:12:56;;;;;;;1.23;0.68;;;18.60;99.90;;;;;;4432304;32;20081;-67
2021/08/16 01:15:21;;;;;;;0.43;0.43;;;18.50;99.90;;;;;;4431292;32;20062;-67
2021/08/16 01:17:47;;;;;;;0.40;0.40;;;18.50;99.90;;;;;;4431437;32;20061;-67
2021/08/16 01:20:14;;;;;;;0.32;0.32;;;18.50;99.90;;;;;;4431360;32;20078;-67
2021/08/16 01:22:40;;;;;;;0.55;0.55;;;18.50;99.90;;;;;;4431811;32;20077;-67
2021/08/16 01:25:08;;;;;;;0.32;0.32;;;18.60;99.90;;;;;;4431342;32;20073;-66
2021/08/16 01:27:34;;;;;;;0.50;0.50;;;18.60;99.90;;;;;;4431649;32;20490;-67
2021/08/16 01:30:00;;;;;;;0.40;0.40;;;18.80;99.90;;;;;;4431983;32;20116;-66
2021/08/16 01:32:26;;;;;;;0.43;0.43;;;18.90;99.90;;;;;;4431632;32;20494;-66
2021/08/16 01:34:52;;;;;;;0.55;0.55;;;18.80;99.90;;;;;;4441263;32;20098;-66
2021/08/16 01:37:17;;;;;;;1.85;1.05;;;18.90;99.90;;;;;;4447641;32;20064;-66
2021/08/16 01:39:43;;;;;;;0.40;0.40;;;19.00;99.90;;;;;;4446775;32;20082;-67
2021/08/16 01:42:09;;;;;;;4.47;2.08;;;19.00;99.90;;;;;;4446652;32;20065;-67
2021/08/16 01:44:34;;;;;;;0.30;0.30;;;18.90;99.90;;;;;;4447620;32;20065;-67
2021/08/16 01:47:00;;;;;;;0.47;0.47;;;19.00;99.90;;;;;;4439642;32;20065;-67
2021/08/16 01:49:25;;;;;;;0.50;0.50;;;18.90;99.90;;;;;;4432010;32;20073;-67
2021/08/16 01:51:51;;;;;;;0.88;0.50;;;18.60;99.90;;;;;;4431170;32;20070;-67
2021/08/16 01:54:17;;;;;;;0.32;0.32;;;18.60;99.90;;;;;;4431544;32;20081;-67
2021/08/16 01:56:42;;;;;;;0.35;0.35;;;18.60;99.90;;;;;;4430721;32;20061;-67
2021/08/16 01:59:08;;;;;;;7.57;0.45;;;18.50;99.90;;;;;;4431313;32;20376;-67
2021/08/16 02:01:33;;;;;;;0.22;0.22;;;18.30;99.90;;;;;;4431190;32;20416;-67
2021/08/16 02:03:59;;;;;;;17.62;1.08;;;18.30;99.90;;;;;;4430978;32;20478;-67
2021/08/16 02:06:24;;;;;;;0.40;0.40;;;18.10;99.90;;;;;;4430938;32;20518;-67
2021/08/16 02:08:50;;;;;;;2.42;0.80;;;18.10;99.90;;;;;;4432362;32;20069;-67
2021/08/16 02:11:15;;;;;;;1.27;1.02;;;18.00;99.90;;;;;;4430926;32;20065;-67
2021/08/16 02:13:41;;;;;;;0.35;0.35;;;18.00;99.90;;;;;;4430762;32;20070;-67
2021/08/16 02:16:07;;;;;;;0.90;0.65;;;17.80;99.90;;;;;;4431167;32;20057;-67
2021/08/16 02:18:32;;;;;;;0.40;0.40;;;17.80;99.90;;;;;;4430661;32;20409;-67
2021/08/16 02:20:58;;;;;;;0.43;0.43;;;17.80;99.90;;;;;;4431472;32;20507;-67
2021/08/16 02:23:23;;;;;;;0.50;0.50;;;17.70;99.90;;;;;;4432004;32;20069;-67
2021/08/16 02:25:50;;;;;;;22.40;3.00;;;17.70;99.90;;;;;;4430864;32;20065;-67
2021/08/16 02:28:16;;;;;;;10.50;1.77;;;17.80;99.90;;;;;;4430552;32;20077;-67
2021/08/16 02:30:44;;;;;;;0.30;0.30;;;17.80;99.90;;;;;;4430532;32;20082;-67
2021/08/16 02:33:11;;;;;;;0.30;0.30;;;17.80;99.90;;;;;;4430479;32;20132;-67
2021/08/16 02:35:37;;;;;;;0.77;0.55;;;18.00;99.90;;;;;;4443484;32;20079;-67
2021/08/16 02:38:02;;;;;;;0.57;0.57;;;18.10;99.90;;;;;;4446347;32;20086;-67
2021/08/16 02:40:28;;;;;;;0.40;0.40;;;18.20;99.90;;;;;;4445745;32;20066;-67
2021/08/16 02:42:53;;;;;;;1.85;0.73;;;18.30;99.90;;;;;;4445942;32;20112;-67
2021/08/16 02:45:19;;;;;;;0.40;0.40;;;18.30;99.90;;;;;;4446105;32;20396;-67
2021/08/16 02:47:44;;;;;;;0.77;0.73;;;18.30;99.90;;;;;;4432656;32;20070;-67
2021/08/16 02:50:10;;;;;;;0.60;0.60;;;18.40;99.90;;;;;;4431207;32;20099;-67
2021/08/16 02:52:36;;;;;;;0.45;0.45;;;18.40;99.90;;;;;;4430636;32;20116;-67
2021/08/16 02:55:03;;;;;;;1.08;0.98;;;18.40;99.90;;;;;;4430116;32;20073;-68
2021/08/16 02:57:28;;;;;;;2.70;0.88;;;18.40;99.90;;;;;;4430490;32;20104;-67
2021/08/16 02:59:54;;;;;;;0.85;0.77;;;18.40;99.90;;;;;;4430207;32;20065;-67
2021/08/16 03:02:19;;;;;;;0.40;0.40;;;18.30;99.90;;;;;;4430144;32;20123;-67
2021/08/16 03:04:45;;;;;;;0.30;0.30;;;18.40;99.90;;;;;;4430684;32;20082;-67
2021/08/16 03:07:10;;;;;;;0.40;0.40;;;18.50;99.90;;;;;;4431358;32;20131;-67
2021/08/16 03:09:36;;;;;;;37.47;1.48;;;18.40;99.90;;;;;;4431425;32;20077;-67
2021/08/16 03:12:02;;;;;;;0.85;0.85;;;18.40;99.90;;;;;;4430439;32;20078;-67
2021/08/16 03:14:28;;;;;;;0.37;0.37;;;18.20;99.90;;;;;;4431064;32;20391;-67
2021/08/16 03:16:53;;;;;;;0.40;0.40;;;18.20;99.90;;;;;;4429199;32;20065;-67
2021/08/16 03:19:19;;;;;;;0.40;0.40;;;18.30;99.90;;;;;;4429954;32;20136;-67
2021/08/16 03:21:44;;;;;;;0.52;0.50;;;18.30;99.90;;;;;;4429917;32;20535;-67
2021/08/16 03:24:10;;;;;;;2.15;0.70;;;18.20;99.90;;;;;;4430179;32;20057;-67
2021/08/16 03:26:36;;;;;;;0.60;0.60;;;18.30;99.90;;;;;;4429781;32;20558;-67
2021/08/16 03:29:01;;;;;;;0.37;0.37;;;18.40;99.90;;;;;;4429884;32;20065;-67
2021/08/16 03:31:27;;;;;;;1.23;0.70;;;18.20;99.90;;;;;;4429388;32;20132;-67
2021/08/16 03:33:53;;;;;;;0.45;0.45;;;18.20;99.90;;;;;;4433368;32;20102;-67
2021/08/16 03:36:19;;;;;;;0.40;0.40;;;18.10;99.90;;;;;;4445791;32;20090;-67
2021/08/16 03:38:44;;;;;;;0.80;0.80;;;18.20;99.90;;;;;;4445106;32;20061;-67
2021/08/16 03:41:09;;;;;;;0.45;0.43;;;18.20;99.90;;;;;;4444793;32;20124;-67
2021/08/16 03:43:35;;;;;;;0.40;0.40;;;18.20;99.90;;;;;;4445896;32;20073;-67
2021/08/16 03:46:00;;;;;;;1.77;0.50;;;18.20;99.90;;;;;;4443407;32;20065;-67
2021/08/16 03:48:26;;;;;;;0.60;0.60;;;18.10;99.90;;;;;;4430530;32;20078;-67
2021/08/16 03:50:52;;;;;;;0.37;0.37;;;18.10;99.90;;;;;;4429392;32;20077;-67
2021/08/16 03:53:17;;;;;;;0.75;0.73;;;18.10;99.90;;;;;;4444451;32;20064;-67
2021/08/16 03:55:43;;;;;;;1.02;0.70;;;18.10;99.90;;;;;;4446261;32;20073;-67
2021/08/16 03:58:09;;;;;;;0.52;0.52;;;18.20;99.90;;;;;;4444819;32;20074;-67
2021/08/16 04:00:35;;;;;;;0.50;0.50;;;18.20;99.90;;;;;;4445093;32;20080;-67
2021/08/16 04:03:01;;;;;;;0.57;0.57;;;18.30;99.90;;;;;;4444628;32;20065;-67
2021/08/16 04:05:27;;;;;;;11.63;0.80;;;18.40;99.90;;;;;;4445201;32;20081;-67
2021/08/16 04:07:53;;;;;;;0.40;0.40;;;18.40;99.90;;;;;;4445856;32;20073;-67
2021/08/16 04:10:19;;;;;;;0.65;0.57;;;18.50;99.90;;;;;;4445355;32;20077;-67
2021/08/16 04:12:45;;;;;;;3.42;1.48;;;18.60;99.90;;;;;;4444822;32;20072;-67
2021/08/16 04:15:13;;;;;;;2.22;0.50;;;18.50;99.90;;;;;;4445325;32;20513;-67
2021/08/16 04:17:39;;;;;;;0.37;0.37;;;18.50;99.90;;;;;;4444403;32;20405;-67
2021/08/16 04:20:06;;;;;;;0.65;0.50;;;18.50;99.90;;;;;;4444705;32;20104;-67
2021/08/16 04:22:31;;;;;;;0.55;0.55;;;18.50;99.90;;;;;;4438416;32;20065;-67
2021/08/16 04:24:57;;;;;;;0.65;0.60;;;18.20;99.90;;;;;;4441723;32;20074;-67
2021/08/16 04:27:22;;;;;;;3.20;1.10;;;18.20;99.90;;;;;;4442132;32;20531;-67
2021/08/16 04:29:48;;;;;;;1.05;0.65;;;18.00;99.90;;;;;;4444135;32;20077;-67
2021/08/16 04:32:13;;;;;;;0.43;0.43;;;18.10;99.90;;;;;;4445469;32;20068;-67
2021/08/16 04:34:39;;;;;;;0.50;0.50;;;18.20;99.90;;;;;;4438112;32;20408;-67
2021/08/16 04:37:04;;;;;;;0.57;0.57;;;18.10;99.90;;;;;;4445439;32;20088;-67
2021/08/16 04:39:30;;;;;;;0.50;0.50;;;18.20;99.90;;;;;;4444159;32;20596;-68
2021/08/16 04:41:55;;;;;;;0.55;0.52;;;18.20;99.90;;;;;;4445283;32;20061;-67
2021/08/16 04:44:21;;;;;;;0.50;0.50;;;18.30;99.90;;;;;;4446671;32;20085;-67
2021/08/16 04:46:46;;;;;;;0.40;0.40;;;18.40;99.90;;;;;;4447693;32;20135;-67
2021/08/16 04:49:12;;;;;;;0.40;0.40;;;18.50;99.90;;;;;;4448176;32;20073;-67
2021/08/16 04:51:37;;;;;;;2.20;0.65;;;18.50;99.90;;;;;;4448176;32;20163;-67
2021/08/16 04:54:03;;;;;;;0.52;0.52;;;18.60;99.90;;;;;;4444714;32;20579;-67
2021/08/16 04:56:28;;;;;;;3.50;0.68;;;18.60;99.90;;;;;;4447836;32;20064;-67
2021/08/16 04:58:56;;;;;;;0.75;0.50;;;18.60;99.90;;;;;;4446533;32;20176;-67
2021/08/16 05:01:22;;;;;;;0.52;0.40;;;18.50;99.90;;;;;;4438701;32;20074;-67
2021/08/16 05:03:48;;;;;;;0.95;0.70;;;18.50;99.90;;;;;;4437580;32;20073;-67
2021/08/16 05:06:13;;;;;;;0.57;0.57;;;18.50;99.90;;;;;;4444035;32;20074;-67
2021/08/16 05:08:38;;;;;;;0.43;0.43;;;18.60;99.90;;;;;;4445412;32;20077;-67
2021/08/16 05:11:04;;;;;;;1.45;0.95;;;18.50;99.90;;;;;;4443461;32;20076;-67
2021/08/16 05:13:31;;;;;;;2.60;1.58;;;18.60;99.90;;;;;;4442582;32;20120;-67
2021/08/16 05:15:57;;;;;;;0.93;0.75;;;18.60;99.90;;;;;;4444473;32;20073;-67
2021/08/16 05:18:22;;;;;;;0.30;0.30;;;18.70;99.90;;;;;;4430934;32;20081;-66
2021/08/16 05:20:49;;;;;;;0.62;0.40;;;18.70;99.90;;;;;;4436020;32;20124;-67
2021/08/16 05:23:17;;;;;;;0.47;0.47;;;18.80;99.90;;;;;;4443275;32;20086;-66
2021/08/16 05:25:43;;;;;;;0.40;0.40;;;18.90;99.90;;;;;;4439128;32;20073;-67
2021/08/16 05:28:08;;;;;;;5.00;0.40;;;19.00;99.90;;;;;;4438032;32;20501;-67
2021/08/16 05:30:34;;;;;;;0.62;0.62;;;19.00;99.90;;;;;;4424406;32;20085;-66
2021/08/16 05:33:01;;;;;;;0.50;0.50;;;19.10;99.90;;;;;;4426091;32;20072;-67
2021/08/16 05:35:26;;;;;;;1.30;0.90;;;19.10;99.90;;;;;;4438353;32;20632;-67
2021/08/16 05:37:52;;;;;;;3.25;1.33;;;19.20;99.90;;;;;;4438641;32;20081;-66
2021/08/16 05:40:18;;;;;;;0.35;0.35;;;19.30;99.90;;;;;;4436090;32;20545;-67
2021/08/16 05:42:43;;;;;;;1.62;0.70;;;19.40;99.90;;;;;;4431098;32;20471;-68
2021/08/16 05:45:09;;;;;;;2.58;0.90;;;19.40;99.90;;;;;;4435241;32;20136;-68
2021/08/16 05:47:35;;;;;;;1.52;1.10;;;19.60;99.90;;;;;;4441462;32;20073;-67
2021/08/16 05:50:01;;;;;;;1.98;0.50;;;19.70;99.90;;;;;;4438407;32;20085;-67
2021/08/16 05:52:27;;;;;;;0.37;0.37;;;19.70;99.90;;;;;;4432003;32;20381;-66
2021/08/16 05:54:52;;;;;;;1.12;0.95;;;19.80;99.90;;;;;;4432982;32;20080;-67
2021/08/16 05:57:18;;;;;;;1.98;1.35;;;19.90;99.90;;;;;;4430749;32;20145;-67
2021/08/16 05:59:43;;;;;;;0.30;0.30;;;20.00;99.90;;;;;;4430976;32;20060;-67
2021/08/16 06:02:09;;;;;;;0.82;0.62;;;20.00;99.90;;;;;;4436268;32;20451;-67
2021/08/16 06:04:34;;;;;;;0.30;0.30;;;20.10;99.90;;;;;;4428022;32;20223;-67
2021/08/16 06:07:00;;;;;;;0.35;0.35;;;20.20;99.90;;;;;;4432519;32;20077;-67
2021/08/16 06:09:25;;;;;;;0.30;0.30;;;20.20;99.90;;;;;;4435874;32;20072;-67
2021/08/16 06:11:51;;;;;;;0.93;0.68;;;20.30;99.90;;;;;;4431439;32;20081;-67
2021/08/16 06:14:16;;;;;;;0.30;0.30;;;20.30;99.90;;;;;;4433313;32;20085;-67
2021/08/16 06:16:42;;;;;;;0.47;0.47;;;20.30;99.90;;;;;;4427713;32;20411;-67
2021/08/16 06:19:08;;;;;;;0.68;0.57;;;20.30;99.90;;;;;;4431463;32;20475;-67
2021/08/16 06:21:39;;;;;;;1.08;0.55;;;20.40;99.90;;;;;;4428827;32;20078;-66
2021/08/16 06:24:05;;;;;;;0.43;0.30;;;20.50;99.90;;;;;;4430381;32;76931;-68
2021/08/16 06:26:30;;;;;;;0.37;0.37;;;20.60;99.90;;;;;;4425535;32;20604;-66
2021/08/16 06:28:56;;;;;;;0.30;0.30;;;20.70;99.90;;;;;;4431178;32;20428;-67
2021/08/16 06:31:21;;;;;;;0.30;0.30;;;20.60;99.90;;;;;;4424208;32;20109;-66
2021/08/16 06:33:47;;;;;;;0.40;0.40;;;20.50;99.90;;;;;;4425998;32;20073;-66
2021/08/16 06:36:12;;;;;;;0.30;0.30;;;20.50;99.90;;;;;;4427191;32;20297;-66
2021/08/16 06:38:38;;;;;;;0.20;0.20;;;20.50;99.90;;;;;;4428142;32;20080;-66
2021/08/16 06:41:04;;;;;;;0.55;0.50;;;20.50;99.90;;;;;;4425454;32;21160;-66
2021/08/16 06:43:31;;;;;;;0.85;0.50;;;20.40;99.90;;;;;;4425340;32;20206;-66
2021/08/16 06:45:57;;;;;;;0.30;0.30;;;20.40;99.90;;;;;;4426349;32;20072;-66
2021/08/16 06:48:23;;;;;;;0.52;0.50;;;20.30;99.90;;;;;;4431134;32;20113;-66
2021/08/16 06:50:48;;;;;;;0.28;0.28;;;20.30;99.90;;;;;;4427643;32;20481;-66
2021/08/16 06:53:15;;;;;;;0.28;0.28;;;20.40;99.90;;;;;;4431333;32;20053;-66
2021/08/16 06:55:42;;;;;;;0.25;0.25;;;20.40;99.90;;;;;;4428232;32;20128;-66
2021/08/16 06:58:07;;;;;;;0.30;0.30;;;20.40;99.90;;;;;;4426874;32;20057;-67
2021/08/16 07:00:33;;;;;;;0.20;0.20;;;20.40;99.90;;;;;;4432527;32;20072;-66
2021/08/16 07:02:59;;;;;;;0.65;0.65;;;20.40;99.90;;;;;;4430379;32;20081;-66
2021/08/16 07:05:25;;;;;;;0.43;0.43;;;20.50;99.90;;;;;;4432569;32;20065;-66
2021/08/16 07:07:52;;;;;;;2.40;0.85;;;20.50;99.90;;;;;;4429174;32;20074;-66
2021/08/16 07:10:19;;;;;;;1.75;0.40;;;20.50;99.90;;;;;;4426998;32;20077;-66
2021/08/16 07:12:44;;;;;;;0.37;0.37;;;20.70;99.90;;;;;;4435117;32;20086;-66
2021/08/16 07:15:11;;;;;;;0.35;0.35;;;20.80;99.90;;;;;;4435718;32;20070;-66
2021/08/16 07:17:36;;;;;;;1.65;0.93;;;20.90;99.90;;;;;;4432925;32;20083;-65
2021/08/16 07:20:02;;;;;;;0.40;0.40;;;21.00;99.90;;;;;;4434963;32;20112;-65
2021/08/16 07:22:28;;;;;;;0.20;0.20;;;20.90;99.90;;;;;;4432484;32;20069;-67
2021/08/16 07:24:53;;;;;;;0.30;0.30;;;20.90;99.90;;;;;;4430736;32;20611;-66
2021/08/16 07:27:19;;;;;;;1.17;0.82;;;20.90;99.90;;;;;;4430736;32;20164;-66
2021/08/16 07:29:44;;;;;;;0.47;0.47;;;21.00;99.90;;;;;;4428667;32;20089;-66
2021/08/16 07:32:09;;;;;;;0.30;0.30;;;20.90;99.90;;;;;;4430421;32;20627;-68
2021/08/16 07:34:37;;;;;;;19.65;1.00;;;21.00;99.90;;;;;;4428568;32;20118;-67
2021/08/16 07:37:04;;;;;;;13.25;0.52;;;21.00;99.90;;;;;;4426117;32;20876;-67
2021/08/16 07:39:30;;;;;;;0.57;0.57;;;21.10;99.90;;;;;;4414134;32;20221;-68
2021/08/16 07:41:56;;;;;;;11.57;1.52;;;21.20;99.90;;;;;;4431737;32;20527;-63
2021/08/16 07:44:21;;;;;;;0.25;0.25;;;21.00;99.90;;;;;;4431539;32;20060;-65
2021/08/16 07:46:47;;;;;;;0.50;0.50;;;20.90;99.90;;;;;;4433653;32;20505;-65
2021/08/16 07:49:12;;;;;;;0.50;0.50;;;20.70;99.90;;;;;;4435624;32;20111;-64
2021/08/16 07:51:38;;;;;;;0.47;0.47;;;20.70;99.90;;;;;;4425495;32;20209;-65
2021/08/16 07:54:03;;;;;;;0.52;0.32;;;20.50;99.90;;;;;;4426110;32;20097;-64
2021/08/16 07:56:29;;;;;;;1.67;0.40;;;20.50;99.90;;;;;;4428362;32;20216;-65
2021/08/16 07:58:54;;;;;;;1.75;0.65;;;20.60;99.90;;;;;;4431112;32;20617;-65
2021/08/16 08:01:20;;;;;;;0.32;0.32;;;20.60;99.90;;;;;;4426905;32;20131;-66
2021/08/16 08:03:45;;;;;;;0.30;0.30;;;20.70;99.90;;;;;;4428342;32;20073;-65
2021/08/16 08:06:11;;;;;;;0.32;0.32;;;20.90;99.90;;;;;;4425364;32;20097;-66
2021/08/16 08:08:36;;;;;;;0.75;0.30;;;21.10;99.90;;;;;;4425555;32;20082;-65
2021/08/16 08:11:02;;;;;;;0.40;0.40;;;21.20;99.90;;;;;;4430390;32;20129;-66
2021/08/16 08:13:28;;;;;;;1.17;0.50;;;21.30;99.90;;;;;;4423516;32;20061;-65
2021/08/16 08:15:54;;;;;;;0.30;0.30;;;21.30;99.90;;;;;;4432993;32;20085;-66
2021/08/16 08:18:19;;;;;;;0.68;0.68;;;21.40;99.90;;;;;;4428503;32;20072;-66
2021/08/16 08:20:45;;;;;;;0.40;0.40;;;21.60;99.90;;;;;;4425332;32;20089;-65
2021/08/16 08:23:11;;;;;;;0.40;0.40;;;21.70;99.90;;;;;;4423916;32;20097;-67
2021/08/16 08:25:39;;;;;;;1.55;0.95;;;21.80;99.90;;;;;;4427138;32;20473;-66
2021/08/16 08:28:11;;;;;;;1.23;0.50;;;21.90;99.90;;;;;;4427537;32;20136;-66
2021/08/16 08:30:37;;;;;;;0.52;0.52;;;21.80;99.90;;;;;;4426221;32;20140;-66
2021/08/16 08:33:02;;;;;;;0.20;0.20;;;21.80;99.90;;;;;;4422755;32;20302;-66
2021/08/16 08:35:28;;;;;;;0.32;0.32;;;21.90;99.90;;;;;;4420279;32;20110;-66
2021/08/16 08:37:53;;;;;;;0.30;0.30;;;21.90;99.90;;;;;;4429123;32;20130;-66
2021/08/16 08:40:19;;;;;;;1.70;0.93;;;21.80;99.80;;;;;;4427575;32;20105;-65
2021/08/16 08:42:52;;;;;;;0.30;0.30;;;21.80;99.70;;;;;;4424563;32;20066;-65
2021/08/16 08:45:20;;;;;;;0.50;0.50;;;21.90;99.80;;;;;;4406187;32;20315;-63
2021/08/16 08:47:47;;;;;;;0.30;0.30;;;22.00;99.70;;;;;;4424824;32;20580;-66
2021/08/16 08:50:15;;;;;;;0.20;0.20;;;22.00;99.40;;;;;;4425315;32;20081;-66
2021/08/16 08:52:44;;;;;;;5.95;0.80;;;22.10;99.50;;;;;;4428538;32;20452;-66
2021/08/16 08:55:11;;;;;;;0.30;0.30;;;22.10;99.80;;;;;;4426274;32;20052;-66
2021/08/16 08:57:38;;;;;;;0.30;0.30;;;22.30;99.60;;;;;;4424240;32;20605;-66
2021/08/16 09:00:05;;;;;;;0.50;0.50;;;22.30;99.60;;;;;;4425439;32;20116;-66
2021/08/16 09:02:31;;;;;;;2.15;0.93;;;22.20;99.20;;;;;;4427619;32;20211;-66
2021/08/16 09:04:57;;;;;;;0.20;0.20;;;22.10;99.50;;;;;;4423481;32;20513;-66
2021/08/16 09:07:32;;;;;;;0.30;0.30;;;21.90;99.50;;;;;;4419682;32;20094;-66
2021/08/16 09:09:57;;;;;;;0.50;0.50;;;21.80;99.60;;;;;;4417483;32;20086;-66
2021/08/16 09:12:39;;;;;;;0.65;0.47;;;21.80;99.20;;;;;;4419695;32;20147;-66
2021/08/16 09:15:16;;;;;;;0.55;0.55;;;21.70;99.50;;;;;;4411616;32;21279;-66
2021/08/16 09:17:41;;;;;;;1.25;0.50;;;21.90;99.30;;;;;;4424127;32;20069;-65
2021/08/16 09:20:17;;;;;;;0.20;0.20;;;21.90;99.10;;;;;;4410768;32;20112;-66
2021/08/16 09:22:54;;;;;;;0.45;0.45;;;22.00;99.20;;;;;;4424161;32;20154;-66
2021/08/16 09:25:20;;;;;;;0.30;0.30;;;22.10;98.90;;;;;;4413926;32;20150;-65
2021/08/16 09:27:47;;;;;;;0.25;0.25;;;22.30;99.10;;;;;;4411232;32;20129;-65
2021/08/16 09:30:15;;;;;;;5.07;0.60;;;22.30;98.70;;;;;;4422286;32;20081;-65
2021/08/16 09:32:41;;;;;;;0.30;0.30;;;22.20;98.60;;;;;;4420629;32;20410;-65
2021/08/16 09:35:09;;;;;;;0.25;0.25;;;22.40;98.40;;;;;;4420454;32;20061;-65
2021/08/16 09:37:35;;;;;;;2.22;0.93;;;22.60;98.40;;;;;;4418964;32;20085;-65
2021/08/16 09:40:10;;;;;;;15.25;0.40;;;22.90;98.20;;;;;;4416496;32;20450;-64
2021/08/16 09:42:53;;;;;;;0.22;0.22;;;23.30;97.80;;;;;;4408740;32;20601;-65
2021/08/16 09:45:30;;;;;;;15.07;0.80;;;23.30;96.70;;;;;;4414989;32;20073;-65
2021/08/16 09:47:58;;;;;;;0.43;0.28;;;23.00;96.90;;;;;;4416014;32;20102;-65
2021/08/16 09:50:37;;;;;;;0.30;0.22;;;23.00;96.70;;;;;;4427127;32;20094;-65
2021/08/16 09:53:06;;;;;;;0.25;0.25;;;23.20;96.80;;;;;;4414870;32;20550;-64
2021/08/16 09:55:33;;;;;;;0.43;0.20;;;23.30;96.30;;;;;;4423889;32;20065;-64
2021/08/16 09:57:59;;;;;;;2.22;0.50;;;23.40;96.60;;;;;;4410292;32;20093;-65
2021/08/16 10:00:24;;;;;;;2.25;0.60;;;23.60;96.10;;;;;;4429525;32;20093;-64
2021/08/16 10:02:51;;;;;;;0.25;0.25;;;23.80;95.70;;;;;;4427691;32;20557;-65
2021/08/16 10:05:16;;;;;;;0.35;0.35;;;24.00;94.50;;;;;;4429632;32;20504;-65
2021/08/16 10:07:43;;;;;;;0.25;0.25;;;24.30;94.60;;;;;;4432639;32;20517;-65
2021/08/16 10:10:09;;;;;;;0.75;0.60;;;24.60;94.50;;;;;;4417162;32;20119;-65
2021/08/16 10:12:35;;;;;;;0.75;0.62;;;24.90;93.70;;;;;;4427788;32;20077;-65
2021/08/16 10:15:02;;;;;;;0.45;0.40;;;24.80;92.60;;;;;;4415830;32;20088;-65
2021/08/16 10:17:36;;;;;;;0.45;0.45;;;24.80;93.50;;;;;;4409938;32;20074;-64
2021/08/16 10:20:02;;;;;;;1.75;0.85;;;24.90;92.70;;;;;;4427368;32;20062;-64
2021/08/16 10:22:35;;;;;;;0.20;0.20;;;24.80;92.90;;;;;;4430008;32;20124;-64
2021/08/16 10:25:18;;;;;;;0.40;0.30;;;24.90;91.60;;;;;;4429252;32;20382;-65
2021/08/16 10:27:45;;;;;;;0.28;0.25;;;25.10;91.70;;;;;;4417936;32;20077;-64
2021/08/16 10:30:13;;;;;;;0.30;0.30;;;25.10;91.70;;;;;;4415025;32;20065;-64
2021/08/16 10:32:38;;;;;;;0.22;0.22;;;25.40;91.80;;;;;;4431888;32;20057;-65
2021/08/16 10:35:06;;;;;;;0.32;0.28;;;25.30;91.50;;;;;;4432259;32;20231;-65
2021/08/16 10:37:42;;;;;;;0.20;0.20;;;24.60;91.00;;;;;;4417906;32;20430;-64
2021/08/16 10:40:25;;;;;;;0.43;0.35;;;24.20;92.20;;;;;;4432800;32;20068;-64
2021/08/16 10:42:54;;;;;;;1.40;0.90;;;24.20;92.60;;;;;;4425426;32;20215;-65
2021/08/16 10:45:28;;;;;;;0.30;0.30;;;24.30;92.50;;;;;;4436084;32;20088;-64
2021/08/16 10:48:02;;;;;;;2.42;0.70;;;24.40;92.70;;;;;;4420121;32;20110;-65
2021/08/16 10:50:28;;;;;;;0.20;0.20;;;24.90;92.20;;;;;;4433230;32;20093;-64
2021/08/16 10:53:09;;;;;;;0.50;0.45;;;25.30;91.50;;;;;;4432688;32;20637;-64
2021/08/16 10:55:37;;;;;;;0.40;0.32;;;25.50;91.20;;;;;;4433956;32;20847;-64
2021/08/16 10:58:12;;;;;;;0.22;0.20;;;25.80;91.20;;;;;;4430773;32;20080;-65
2021/08/16 11:00:39;;;;;;;0.08;0.08;;;26.20;90.20;;;;;;4437797;32;20086;-66
2021/08/16 11:03:07;;;;;;;0.30;0.30;;;25.90;90.60;;;;;;4428484;32;20081;-66
2021/08/16 11:05:35;;;;;;;0.20;0.20;;;25.60;90.80;;;;;;4435409;32;20057;-65
2021/08/16 11:08:02;;;;;;;0.30;0.30;;;25.60;90.70;;;;;;4431029;32;20166;-65
2021/08/16 11:10:38;;;;;;;0.10;0.10;;;25.60;91.10;;;;;;4415984;32;20385;-66
2021/08/16 11:13:21;;;;;;;0.20;0.20;;;25.80;91.00;;;;;;4423718;32;20069;-66
2021/08/16 11:15:48;;;;;;;0.20;0.20;;;25.60;90.50;;;;;;4432435;32;20069;-65
2021/08/16 11:18:17;;;;;;;0.10;0.10;;;25.10;90.40;;;;;;4433648;32;20122;-65
2021/08/16 11:20:44;;;;;;;0.30;0.30;;;25.40;90.50;;;;;;4432491;32;20072;-66
2021/08/16 11:23:10;;;;;;;0.20;0.20;;;25.50;90.70;;;;;;4431158;32;20077;-66
2021/08/16 11:25:36;;;;;;;0.15;0.15;;;25.30;90.90;;;;;;4427447;32;20368;-66
2021/08/16 11:28:03;;;;;;;0.50;0.50;;;25.30;91.20;;;;;;4429019;32;20572;-66
2021/08/16 11:30:30;;;;;;;1.25;0.57;;;25.40;90.40;;;;;;4425010;32;20490;-65
2021/08/16 11:32:56;;;;;;;0.10;0.10;;;25.60;90.00;;;;;;4431579;32;20294;-66
2021/08/16 11:35:24;;;;;;;0.55;0.50;;;26.00;90.20;;;;;;4429230;32;20494;-66
2021/08/16 11:37:49;;;;;;;1.00;0.82;;;26.40;90.30;;;;;;4428049;32;20531;-67
2021/08/16 11:40:16;;;;;;;0.32;0.30;;;26.90;89.00;;;;;;4426588;32;20058;-66
2021/08/16 11:42:42;;;;;;;0.52;0.43;;;26.50;88.30;;;;;;4427463;32;20069;-64
2021/08/16 11:45:10;;;;;;;0.28;0.28;;;25.90;87.90;;;;;;4424824;32;20535;-66
2021/08/16 11:47:39;;;;;;;0.20;0.20;;;25.60;89.40;;;;;;4410718;32;20168;-66
2021/08/16 11:50:13;;;;;;;0.32;0.32;;;25.60;90.00;;;;;;4427965;32;20459;-67
2021/08/16 11:52:40;;;;;;;0.10;0.10;;;25.40;89.00;;;;;;4428102;32;20181;-66
2021/08/16 11:55:07;;;;;;;2.50;0.82;;;25.40;89.80;;;;;;4433996;32;20162;-66
2021/08/16 11:57:33;;;;;;;0.10;0.10;;;25.90;88.50;;;;;;4417914;32;20062;-66
2021/08/16 11:59:59;;;;;;;1.62;0.85;;;26.10;88.60;;;;;;4429714;32;20070;-67
2021/08/16 12:02:29;;;;;;;0.30;0.25;;;26.20;88.90;;;;;;4428285;32;20077;-66
2021/08/16 12:04:57;;;;;;;0.55;0.37;;;26.00;89.00;;;;;;4432593;32;20104;-65
2021/08/16 12:07:25;;;;;;;0.17;0.17;;;25.80;88.90;;;;;;4426986;32;20089;-66
2021/08/16 12:09:52;;;;;;;0.22;0.22;;;25.70;88.90;;;;;;4433782;32;20495;-66
2021/08/16 12:12:19;;;;;;;0.43;0.30;;;25.70;89.30;;;;;;4432133;32;20813;-67
2021/08/16 12:14:45;;;;;;;0.10;0.10;;;25.60;88.10;;;;;;4416314;32;20176;-67
2021/08/16 12:17:22;;;;;;;1.20;0.73;;;25.30;89.70;;;;;;4427748;32;20064;-67
2021/08/16 12:19:58;;;;;;;0.30;0.10;;;25.10;89.10;;;;;;4431146;32;20555;-67
2021/08/16 12:22:23;;;;;;;0.20;0.20;;;25.60;89.00;;;;;;4431889;32;20085;-67
2021/08/16 12:25:00;;;;;;;0.22;0.22;;;26.30;86.40;;;;;;4429922;32;20074;-67
2021/08/16 12:27:27;;;;;;;0.43;0.25;;;26.40;85.90;;;;;;4423749;32;20138;-66
2021/08/16 12:29:53;;;;;;;0.10;0.10;;;27.00;84.60;;;;;;4408565;32;20155;-66
2021/08/16 12:32:21;;;;;;;0.10;0.10;;;27.80;84.80;;;;;;4427265;32;20089;-66
2021/08/16 12:34:48;;;;;;;0.10;0.10;;;28.00;83.20;;;;;;4489451;26;20217;-72
2021/08/16 12:37:32;;;;;;;0.35;0.35;;;27.30;85.10;;;;;;4814221;27;20100;-65
2021/08/16 12:40:17;;;;;;;0.10;0.10;;;26.70;88.20;;;;;;4409690;32;20101;-66
2021/08/16 12:43:03;;;;;;;0.17;0.17;;;26.30;88.50;;;;;;4425331;32;20077;-66
2021/08/16 12:45:30;;;;;;;0.10;0.10;;;26.50;89.10;;;;;;4420110;32;20538;-66